Time;durP1;ratioP1;P1;durP2;ratioP2;P2;SDS_P1;SDS_P2;PMS_P1;PMS_P2;Temp;Humidity;BMP_temperature;BMP_pressure;BME280_temperature;BME280_humidity;BME280_pressure;Samples;Min_cycle;Max_cycle;Signal;HPM_P1;HPM_P2
2023/05/24 00:00:11;;;;;;;6.88;3.08;;;20.40;73.50;;;;;;6068783;23;20712;-80
2023/05/24 00:02:42;;;;;;;4.57;3.28;;;20.40;72.50;;;;;;6069457;23;20518;-81
2023/05/24 00:05:09;;;;;;;3.83;3.38;;;20.30;72.90;;;;;;6068466;23;20448;-81
2023/05/24 00:07:37;;;;;;;3.70;2.60;;;20.30;75.00;;;;;;6069302;23;20384;-80
2023/05/24 00:10:05;;;;;;;4.25;3.13;;;20.20;74.60;;;;;;6091909;23;20392;-79
2023/05/24 00:12:32;;;;;;;4.50;3.20;;;20.20;73.90;;;;;;6069404;23;20377;-81
2023/05/24 00:14:59;;;;;;;3.40;2.63;;;20.20;74.00;;;;;;6093539;23;20381;-81
2023/05/24 00:17:28;;;;;;;5.07;2.97;;;20.20;74.70;;;;;;6069134;23;20707;-82
2023/05/24 00:19:56;;;;;;;4.03;3.22;;;20.20;76.20;;;;;;6094328;23;20792;-81
2023/05/24 00:22:23;;;;;;;3.22;2.92;;;20.20;76.30;;;;;;6069270;23;20376;-82
2023/05/24 00:24:51;;;;;;;3.90;2.90;;;20.20;77.10;;;;;;6069654;23;20720;-80
2023/05/24 00:27:17;;;;;;;4.50;2.67;;;20.10;76.40;;;;;;6068181;23;20381;-81
2023/05/24 00:29:44;;;;;;;3.75;2.85;;;20.10;74.90;;;;;;6069332;23;20377;-81
2023/05/24 00:32:11;;;;;;;4.55;3.20;;;20.10;75.20;;;;;;6068145;23;20386;-80
2023/05/24 00:34:39;;;;;;;6.00;3.08;;;20.10;76.80;;;;;;6069702;23;20391;-81
2023/05/24 00:37:06;;;;;;;4.47;3.05;;;20.00;76.40;;;;;;6067773;23;20401;-81
2023/05/24 00:39:33;;;;;;;3.60;2.80;;;20.00;77.80;;;;;;6069058;23;20377;-81
2023/05/24 00:42:01;;;;;;;4.32;2.80;;;19.90;79.90;;;;;;6069183;23;20408;-81
2023/05/24 00:44:28;;;;;;;2.70;2.50;;;19.80;79.70;;;;;;6068481;23;20376;-82
2023/05/24 00:46:55;;;;;;;3.88;2.72;;;19.70;78.80;;;;;;6069438;23;20436;-80
2023/05/24 00:49:23;;;;;;;2.97;2.45;;;19.80;77.70;;;;;;6067755;23;20394;-80
2023/05/24 00:51:52;;;;;;;3.05;2.60;;;19.80;77.40;;;;;;6069610;23;20377;-81
2023/05/24 00:54:19;;;;;;;3.15;2.50;;;19.80;77.00;;;;;;6067715;23;20693;-81
2023/05/24 00:56:47;;;;;;;3.83;2.33;;;19.80;76.00;;;;;;6069442;23;20732;-81
2023/05/24 00:59:14;;;;;;;4.70;2.20;;;19.70;76.10;;;;;;6068083;23;20707;-81
2023/05/24 05:35:42;;;;;;;7.93;7.07;;;18.30;99.90;;;;;;6077075;23;21152;31
2023/05/24 05:38:09;;;;;;;8.40;7.60;;;18.40;99.90;;;;;;6094990;23;20410;-77
2023/05/24 05:40:36;;;;;;;7.25;6.55;;;18.40;99.90;;;;;;6097115;23;20443;-78
2023/05/24 05:43:03;;;;;;;7.30;6.57;;;18.50;99.90;;;;;;6096403;23;20706;-78
2023/05/24 05:45:30;;;;;;;7.50;6.80;;;18.50;99.90;;;;;;6096465;23;20387;-77
2023/05/24 05:47:57;;;;;;;7.72;6.97;;;18.60;99.90;;;;;;6096317;23;20383;-77
2023/05/24 05:50:24;;;;;;;8.55;7.30;;;18.60;99.90;;;;;;6122418;23;20405;-77
2023/05/24 05:52:51;;;;;;;7.38;6.18;;;18.60;99.90;;;;;;6097359;23;20718;-78
2023/05/24 05:55:18;;;;;;;7.30;6.60;;;18.60;99.90;;;;;;6096133;23;20680;-77
2023/05/24 05:57:44;;;;;;;6.80;6.20;;;18.60;99.90;;;;;;6096787;23;20383;-78
2023/05/24 06:00:12;;;;;;;6.45;5.85;;;18.60;99.90;;;;;;6121757;23;20375;-77
2023/05/24 06:02:39;;;;;;;7.70;6.45;;;18.70;99.90;;;;;;6091315;23;20381;-77
2023/05/24 06:05:06;;;;;;;7.22;6.53;;;18.70;99.90;;;;;;6067037;23;20404;-77
2023/05/24 06:07:34;;;;;;;6.28;5.68;;;18.80;99.90;;;;;;6068417;23;20373;-77
2023/05/24 06:10:01;;;;;;;6.05;5.05;;;18.90;99.90;;;;;;6067244;23;20382;-77
2023/05/24 06:12:28;;;;;;;6.15;5.53;;;19.00;99.90;;;;;;6067666;23;20441;-77
2023/05/24 06:14:57;;;;;;;5.57;5.07;;;19.10;99.90;;;;;;6068006;23;20382;-77
2023/05/24 06:17:26;;;;;;;5.35;4.85;;;19.20;99.90;;;;;;6067155;23;20786;-77
2023/05/24 06:19:54;;;;;;;5.80;5.13;;;19.40;99.80;;;;;;6068928;23;20404;-78
2023/05/24 06:22:21;;;;;;;5.40;4.90;;;19.50;99.30;;;;;;6091711;23;20381;-77
2023/05/24 06:24:48;;;;;;;5.47;4.80;;;19.60;99.30;;;;;;6068189;23;20382;-80
2023/05/24 06:27:15;;;;;;;5.30;4.80;;;19.70;98.80;;;;;;6066171;23;20773;-80
2023/05/24 06:29:42;;;;;;;5.45;4.68;;;19.80;98.10;;;;;;6068160;23;20479;-80
2023/05/24 06:32:09;;;;;;;6.40;5.10;;;20.00;96.40;;;;;;6092275;23;20461;-80
2023/05/24 06:34:36;;;;;;;7.00;5.53;;;20.10;95.30;;;;;;6068096;23;20404;-80
2023/05/24 06:37:03;;;;;;;5.03;4.63;;;20.20;94.70;;;;;;6066764;23;20382;-80
2023/05/24 06:39:30;;;;;;;5.57;4.87;;;20.20;94.00;;;;;;6060543;23;20376;-80
2023/05/24 06:41:57;;;;;;;5.55;4.43;;;20.30;94.20;;;;;;6066808;23;20392;-80
2023/05/24 06:44:30;;;;;;;5.53;4.35;;;20.40;92.70;;;;;;6066964;23;20736;-80
2023/05/24 06:46:57;;;;;;;4.22;3.83;;;20.50;92.10;;;;;;6067802;23;20420;-79
2023/05/24 06:49:25;;;;;;;4.60;4.20;;;20.60;90.80;;;;;;6067014;23;20683;-80
2023/05/24 06:51:52;;;;;;;4.68;4.03;;;20.70;89.10;;;;;;6067855;23;20373;-79
2023/05/24 06:54:18;;;;;;;5.85;4.85;;;20.80;87.90;;;;;;6067113;23;20699;-77
2023/05/24 06:56:46;;;;;;;5.95;4.72;;;20.90;90.50;;;;;;6067601;23;20389;-77
2023/05/24 06:59:12;;;;;;;4.57;4.18;;;21.00;89.80;;;;;;6091619;23;20511;-77
2023/05/24 07:01:41;;;;;;;5.00;4.32;;;21.00;87.50;;;;;;6067172;23;20378;-77
2023/05/24 07:04:09;;;;;;;4.35;3.97;;;21.10;86.40;;;;;;6066252;23;20373;-77
2023/05/24 07:06:38;;;;;;;5.30;4.80;;;21.20;85.90;;;;;;6091492;23;20408;-78
2023/05/24 07:09:05;;;;;;;6.38;5.30;;;21.20;86.10;;;;;;6064953;23;20385;-78
2023/05/24 07:11:32;;;;;;;5.20;4.40;;;21.30;86.50;;;;;;6068115;23;20381;-78
2023/05/24 07:13:59;;;;;;;4.85;4.32;;;21.30;86.30;;;;;;6066378;23;20385;-77
2023/05/24 07:16:26;;;;;;;4.45;4.05;;;21.40;86.60;;;;;;6067422;23;20381;-78
2023/05/24 07:18:54;;;;;;;4.88;4.20;;;21.50;85.30;;;;;;6069328;23;20374;-78
2023/05/24 07:21:21;;;;;;;4.18;3.78;;;21.60;83.20;;;;;;6068259;23;20736;-79
2023/05/24 07:23:50;;;;;;;5.75;4.18;;;21.60;82.20;;;;;;6094914;23;20376;-79
2023/05/24 07:26:17;;;;;;;11.13;5.75;;;21.60;81.50;;;;;;6069258;23;20378;-78
2023/05/24 07:28:43;;;;;;;6.85;4.63;;;21.70;80.30;;;;;;6070176;23;20388;-81
2023/05/24 07:31:10;;;;;;;4.50;4.10;;;21.80;78.70;;;;;;6068567;23;20381;-78
2023/05/24 07:33:37;;;;;;;4.00;3.60;;;21.80;76.30;;;;;;6069342;23;20843;-81
2023/05/24 07:36:05;;;;;;;4.47;3.95;;;21.90;74.70;;;;;;6069427;23;20440;-80
2023/05/24 07:38:33;;;;;;;4.63;4.22;;;21.90;75.20;;;;;;6068489;23;20439;-81
2023/05/24 07:41:05;;;;;;;5.28;4.15;;;22.00;75.10;;;;;;6068983;23;20382;-80
2023/05/24 07:43:32;;;;;;;6.32;4.70;;;22.00;75.50;;;;;;6068071;23;20385;-76
2023/05/24 07:45:58;;;;;;;6.05;4.60;;;22.10;77.50;;;;;;6069531;23;20394;-77
2023/05/24 07:48:25;;;;;;;7.10;4.43;;;22.10;80.00;;;;;;6067816;23;20719;-77
2023/05/24 07:50:53;;;;;;;5.07;4.10;;;22.20;78.70;;;;;;6068981;23;20373;-75
2023/05/24 07:53:21;;;;;;;4.60;4.20;;;22.20;78.10;;;;;;6068126;23;20483;-76
2023/05/24 07:55:49;;;;;;;5.13;3.42;;;22.30;76.00;;;;;;6093873;23;20388;-76
2023/05/24 07:58:16;;;;;;;4.72;3.75;;;22.40;72.90;;;;;;6067451;23;20479;-77
2023/05/24 08:00:43;;;;;;;3.60;3.30;;;22.60;71.00;;;;;;6069364;23;20377;-76
2023/05/24 08:03:13;;;;;;;6.43;4.10;;;22.60;70.70;;;;;;6067694;23;20378;-77
2023/05/24 08:05:40;;;;;;;5.50;3.40;;;22.70;70.50;;;;;;6068614;23;20377;-76
2023/05/24 08:08:08;;;;;;;5.07;3.47;;;22.90;71.70;;;;;;6068810;23;20418;-76
2023/05/24 08:10:35;;;;;;;6.70;3.77;;;22.90;70.70;;;;;;6067571;23;20374;-76
2023/05/24 08:13:03;;;;;;;8.53;4.87;;;22.90;67.50;;;;;;6068190;23;20382;-76
2023/05/24 08:15:30;;;;;;;4.88;3.10;;;23.00;69.20;;;;;;6067515;23;20400;-76
2023/05/24 08:17:56;;;;;;;3.70;2.97;;;23.00;70.20;;;;;;6068660;23;20452;-76
2023/05/24 08:20:24;;;;;;;3.63;3.15;;;23.00;68.70;;;;;;6067721;23;20544;-76
2023/05/24 08:22:51;;;;;;;4.22;3.15;;;23.00;65.40;;;;;;6068416;23;20444;-77
2023/05/24 08:25:18;;;;;;;4.00;3.28;;;23.00;66.30;;;;;;6067620;23;20381;-76
2023/05/24 08:27:45;;;;;;;5.70;3.28;;;23.00;65.80;;;;;;6068202;23;20452;-76
2023/05/24 08:30:13;;;;;;;12.40;5.43;;;23.10;65.00;;;;;;6067962;23;20736;-77
2023/05/24 08:32:39;;;;;;;8.20;4.20;;;23.20;65.10;;;;;;6068339;23;20380;-76
2023/05/24 08:35:07;;;;;;;4.00;3.10;;;23.30;65.40;;;;;;6068932;23;20382;-76
2023/05/24 08:37:47;;;;;;;3.40;2.97;;;23.40;67.00;;;;;;6062819;23;20760;-79
2023/05/24 08:40:15;;;;;;;4.40;3.15;;;23.50;64.60;;;;;;6063247;23;20410;-79
2023/05/24 08:42:44;;;;;;;3.63;3.10;;;23.50;65.50;;;;;;6039279;23;20416;-79
2023/05/24 08:45:13;;;;;;;3.70;3.15;;;23.70;66.60;;;;;;6061388;23;20383;-79
2023/05/24 08:47:41;;;;;;;3.70;3.22;;;24.00;64.00;;;;;;6061904;23;20375;-79
2023/05/24 08:50:09;;;;;;;5.73;4.00;;;24.10;61.00;;;;;;6063002;23;20749;-79
2023/05/24 08:52:38;;;;;;;3.78;3.00;;;24.30;61.70;;;;;;6038538;23;20385;-79
2023/05/24 08:55:06;;;;;;;3.47;3.03;;;24.50;60.80;;;;;;6043062;23;20377;-79
2023/05/24 08:57:38;;;;;;;3.30;2.88;;;24.60;61.10;;;;;;6059393;23;20392;-79
2023/05/24 09:00:11;;;;;;;5.78;3.55;;;24.60;60.40;;;;;;6042885;23;20494;-78
2023/05/24 09:02:40;;;;;;;4.70;3.38;;;24.60;59.40;;;;;;6056823;23;20392;-79
2023/05/24 09:05:10;;;;;;;4.63;3.78;;;24.40;59.40;;;;;;6063362;23;20430;-79
2023/05/24 09:07:39;;;;;;;4.00;3.63;;;24.30;59.80;;;;;;6037989;23;20492;-77
2023/05/24 09:10:08;;;;;;;6.28;3.97;;;24.30;62.80;;;;;;6062847;23;20438;-76
2023/05/24 09:12:37;;;;;;;5.38;3.80;;;24.30;61.20;;;;;;6062332;23;20398;-76
2023/05/24 09:15:06;;;;;;;5.28;3.65;;;24.30;61.40;;;;;;6063166;23;20427;-76
2023/05/24 09:17:35;;;;;;;5.22;4.03;;;24.30;61.80;;;;;;6038682;23;20389;-76
2023/05/24 09:20:05;;;;;;;17.38;5.30;;;24.30;61.30;;;;;;6043585;23;20711;-76
2023/05/24 09:22:34;;;;;;;9.30;4.20;;;24.30;60.70;;;;;;6060071;23;20379;-76
2023/05/24 09:25:06;;;;;;;7.35;4.20;;;24.40;61.10;;;;;;6063048;23;20386;-79
2023/05/24 09:27:34;;;;;;;4.18;3.42;;;24.50;58.90;;;;;;6062343;23;20387;-80
2023/05/24 09:30:04;;;;;;;3.88;2.75;;;24.50;58.10;;;;;;6063457;23;20393;-79
2023/05/24 09:32:32;;;;;;;5.15;3.53;;;24.60;58.40;;;;;;6062016;23;20462;-78
2023/05/24 09:34:59;;;;;;;11.00;4.65;;;24.60;59.00;;;;;;6064447;23;20409;-79
2023/05/24 09:37:28;;;;;;;5.57;3.75;;;24.70;59.50;;;;;;6039416;23;20425;-78
2023/05/24 09:39:58;;;;;;;4.00;3.03;;;24.80;59.30;;;;;;6062392;23;20378;-77
2023/05/24 09:42:27;;;;;;;4.00;3.20;;;24.90;58.30;;;;;;6063239;23;20378;-77
2023/05/24 09:45:03;;;;;;;3.90;3.50;;;24.90;58.10;;;;;;6062373;23;20382;-77
2023/05/24 09:47:33;;;;;;;3.75;3.45;;;25.00;58.80;;;;;;6039637;23;20416;-80
2023/05/24 09:50:05;;;;;;;3.55;2.70;;;25.10;57.70;;;;;;6074169;23;20391;-79
2023/05/24 09:52:36;;;;;;;2.80;2.45;;;25.10;54.70;;;;;;6063339;23;20379;-79
2023/05/24 09:55:18;;;;;;;3.77;3.00;;;25.00;56.60;;;;;;6062053;23;20379;-79
2023/05/24 09:57:51;;;;;;;5.63;3.05;;;25.00;56.40;;;;;;6061830;23;20383;-80
2023/05/24 10:00:22;;;;;;;4.55;2.60;;;25.10;57.50;;;;;;6063464;23;20383;-80
2023/05/24 10:03:05;;;;;;;2.90;2.60;;;25.20;57.30;;;;;;6061781;23;20379;-79
2023/05/24 10:05:34;;;;;;;5.18;2.97;;;25.20;56.50;;;;;;6062791;23;20371;-79
2023/05/24 10:08:03;;;;;;;4.28;3.20;;;25.20;56.50;;;;;;6062199;23;20809;-79
2023/05/24 10:10:32;;;;;;;4.47;2.90;;;25.40;55.30;;;;;;6063035;23;20852;-79
2023/05/24 10:13:00;;;;;;;2.90;2.60;;;25.60;54.40;;;;;;6061904;23;20456;-80
2023/05/24 10:15:28;;;;;;;3.60;2.90;;;25.90;55.20;;;;;;6062974;23;20766;-79
2023/05/24 10:17:56;;;;;;;3.65;3.10;;;26.00;51.90;;;;;;6061831;23;20391;-79
2023/05/24 10:20:23;;;;;;;3.58;2.78;;;26.30;55.60;;;;;;6062789;23;20383;-80
2023/05/24 10:23:00;;;;;;;3.95;3.15;;;26.50;51.40;;;;;;6061644;23;20403;-79
2023/05/24 10:25:28;;;;;;;2.80;2.50;;;26.50;50.10;;;;;;6062749;23;20831;-79
2023/05/24 10:28:05;;;;;;;3.40;2.83;;;26.70;52.20;;;;;;6062014;23;20394;-79
2023/05/24 10:30:39;;;;;;;3.90;3.03;;;26.60;50.60;;;;;;6062495;23;20387;-80
2023/05/24 10:33:07;;;;;;;4.85;2.83;;;26.50;51.80;;;;;;6061917;23;20695;-76
2023/05/24 10:35:36;;;;;;;3.08;2.38;;;26.40;51.70;;;;;;6062801;23;20542;-79
2023/05/24 10:38:07;;;;;;;4.35;3.05;;;26.40;52.50;;;;;;6062214;23;20390;-77
2023/05/24 10:40:39;;;;;;;4.05;3.10;;;26.70;54.00;;;;;;6064339;23;20450;-77
2023/05/24 10:43:07;;;;;;;3.75;2.80;;;27.10;51.80;;;;;;6061924;23;20379;-77
2023/05/24 10:45:37;;;;;;;3.55;2.55;;;27.30;51.50;;;;;;6062943;23;20425;-77
2023/05/24 10:48:09;;;;;;;4.70;3.22;;;27.40;49.80;;;;;;6063239;23;20378;-78
2023/05/24 10:50:36;;;;;;;4.28;2.83;;;27.70;51.50;;;;;;6063146;23;20418;-77
2023/05/24 10:53:17;;;;;;;3.30;3.00;;;28.00;50.60;;;;;;6064472;23;20717;-77
2023/05/24 10:55:58;;;;;;;3.10;2.45;;;28.30;49.60;;;;;;6064192;23;20868;-78
2023/05/24 10:58:42;;;;;;;4.63;3.42;;;28.40;48.00;;;;;;6064234;23;20695;-77
2023/05/24 11:01:32;;;;;;;2.80;2.60;;;28.20;46.70;;;;;;6052551;23;20434;-77
2023/05/24 11:04:11;;;;;;;3.92;3.50;;;27.80;49.40;;;;;;6065472;23;20419;-80
2023/05/24 11:06:48;;;;;;;3.80;3.03;;;27.40;48.80;;;;;;6042145;23;20387;-80
2023/05/24 11:09:16;;;;;;;3.70;3.35;;;27.10;48.90;;;;;;6063849;23;20378;-81
2023/05/24 11:11:45;;;;;;;3.30;2.90;;;27.10;52.40;;;;;;6064615;23;20383;-80
2023/05/24 11:14:12;;;;;;;3.75;2.95;;;27.30;51.80;;;;;;6063840;23;20395;-80
2023/05/24 11:16:39;;;;;;;3.15;2.75;;;27.60;49.50;;;;;;6064821;23;20458;-80
2023/05/24 11:19:17;;;;;;;3.42;2.63;;;27.70;50.30;;;;;;6063406;23;21020;-80
2023/05/24 11:21:46;;;;;;;3.57;2.80;;;28.00;49.20;;;;;;6065987;23;20718;-78
2023/05/24 11:24:18;;;;;;;3.83;2.90;;;28.30;49.40;;;;;;6063468;23;20842;-78
2023/05/24 11:26:46;;;;;;;3.25;2.92;;;28.50;48.90;;;;;;6064661;23;20454;-81
2023/05/24 11:29:16;;;;;;;3.60;3.00;;;28.80;49.80;;;;;;6063645;23;20394;-81
2023/05/24 11:32:06;;;;;;;3.33;2.85;;;28.90;45.50;;;;;;6064464;23;20884;-81
2023/05/24 11:34:33;;;;;;;3.17;2.78;;;28.60;46.10;;;;;;6063813;23;20703;-78
2023/05/24 11:37:02;;;;;;;4.23;2.90;;;28.70;47.40;;;;;;6064385;23;20419;-77
2023/05/24 11:39:33;;;;;;;3.13;2.72;;;28.80;46.70;;;;;;6062744;23;20466;-80
2023/05/24 11:42:03;;;;;;;3.50;3.20;;;28.70;47.50;;;;;;6065736;23;20438;-81
2023/05/24 11:44:32;;;;;;;2.80;2.60;;;28.80;46.50;;;;;;6062948;23;20781;-79
2023/05/24 11:47:00;;;;;;;4.55;2.88;;;29.10;46.30;;;;;;6063757;23;20386;-78
2023/05/24 11:49:27;;;;;;;2.53;2.33;;;29.50;47.20;;;;;;6063084;23;20407;-78
2023/05/24 11:51:56;;;;;;;3.40;2.92;;;29.50;45.10;;;;;;6064355;23;20462;-78
2023/05/24 11:54:25;;;;;;;3.22;2.90;;;29.20;45.60;;;;;;6063168;23;20556;-80
2023/05/24 11:56:53;;;;;;;4.43;2.90;;;28.90;45.30;;;;;;6062766;23;20390;-78
2023/05/24 11:59:25;;;;;;;3.53;2.85;;;28.50;45.80;;;;;;6063651;23;20418;-78
2023/05/24 12:02:00;;;;;;;2.95;2.50;;;28.30;47.00;;;;;;6063410;23;20387;-78
2023/05/24 12:04:28;;;;;;;5.65;3.00;;;28.30;48.30;;;;;;6063249;23;20393;-78
2023/05/24 12:06:55;;;;;;;3.17;2.70;;;28.50;48.60;;;;;;6064760;23;20371;-78
2023/05/24 12:09:23;;;;;;;3.45;2.65;;;28.90;45.30;;;;;;6062853;23;20786;-78
2023/05/24 12:11:51;;;;;;;2.72;2.38;;;29.00;42.90;;;;;;6063988;23;20390;-78
2023/05/24 12:14:23;;;;;;;3.22;2.50;;;29.00;42.70;;;;;;6064032;23;20394;-79
2023/05/24 12:16:53;;;;;;;2.67;2.45;;;29.00;44.40;;;;;;6063892;23;20383;-78
2023/05/24 12:19:21;;;;;;;2.95;2.63;;;29.00;44.50;;;;;;6063122;23;20383;-79
2023/05/24 12:21:55;;;;;;;4.90;2.57;;;28.80;42.80;;;;;;6064689;23;20411;-79
2023/05/24 12:24:23;;;;;;;3.00;2.70;;;28.50;43.30;;;;;;6086796;23;20761;-79
2023/05/24 12:26:50;;;;;;;3.35;3.00;;;28.40;44.10;;;;;;6064024;23;20386;-79
2023/05/24 12:29:18;;;;;;;3.80;2.53;;;28.50;44.10;;;;;;6063173;23;20439;-78
2023/05/24 12:31:48;;;;;;;3.28;2.97;;;28.60;44.00;;;;;;6064032;23;20411;-79
2023/05/24 12:34:18;;;;;;;4.10;2.80;;;28.60;43.30;;;;;;6062651;23;20387;-78
2023/05/24 12:36:46;;;;;;;3.53;2.80;;;28.50;44.60;;;;;;6063693;23;20383;-78
2023/05/24 12:39:18;;;;;;;2.72;2.53;;;28.30;45.60;;;;;;6064655;23;20691;-79
2023/05/24 12:41:48;;;;;;;2.90;2.70;;;28.20;46.40;;;;;;6062582;23;20375;-78
2023/05/24 12:44:15;;;;;;;4.93;2.65;;;28.00;46.50;;;;;;6063930;23;20729;-78
2023/05/24 12:46:42;;;;;;;2.97;2.77;;;28.00;47.50;;;;;;6062536;23;20430;-78
2023/05/24 12:49:09;;;;;;;4.60;2.88;;;27.90;45.40;;;;;;6062995;23;20387;-78
2023/05/24 12:51:36;;;;;;;3.72;3.03;;;27.70;46.30;;;;;;6062659;23;20387;-78
2023/05/24 12:54:04;;;;;;;2.53;2.33;;;27.50;47.00;;;;;;6063432;23;20379;-79
2023/05/24 12:56:31;;;;;;;4.53;3.08;;;27.30;48.20;;;;;;6062692;23;20387;-78
2023/05/24 12:58:57;;;;;;;3.87;2.77;;;27.10;48.20;;;;;;6063621;23;20398;-79
2023/05/24 13:01:24;;;;;;;3.50;2.80;;;26.90;49.20;;;;;;6062575;23;20721;-79
2023/05/24 13:03:52;;;;;;;4.65;3.10;;;26.60;48.40;;;;;;6063720;23;20375;-78
2023/05/24 13:06:19;;;;;;;6.37;4.13;;;26.40;49.00;;;;;;6063224;23;20383;-78
2023/05/24 13:08:46;;;;;;;7.82;4.68;;;26.20;52.80;;;;;;6062734;23;20381;-78
2023/05/24 13:11:13;;;;;;;5.22;3.90;;;26.00;56.70;;;;;;6063235;23;20738;-78
2023/05/24 13:13:40;;;;;;;4.32;3.90;;;25.70;61.00;;;;;;6062352;23;20406;-78
2023/05/24 13:16:09;;;;;;;8.32;4.35;;;25.50;62.30;;;;;;6064262;23;20386;-78
2023/05/24 13:18:36;;;;;;;7.93;5.40;;;25.00;62.30;;;;;;6062416;23;20411;-77
2023/05/24 13:21:04;;;;;;;6.43;5.30;;;24.50;63.80;;;;;;6064433;23;20701;-77
2023/05/24 13:23:32;;;;;;;10.25;5.85;;;24.10;68.10;;;;;;6062859;23;20391;-77
2023/05/24 13:26:00;;;;;;;7.63;6.32;;;23.80;71.70;;;;;;6063072;23;20758;-78
2023/05/24 13:28:30;;;;;;;11.18;6.80;;;23.40;77.30;;;;;;6062489;23;20709;-77
2023/05/24 13:30:57;;;;;;;8.75;6.18;;;23.00;81.00;;;;;;6063028;23;20387;-77
2023/05/24 13:33:24;;;;;;;7.45;5.50;;;22.60;86.30;;;;;;6063030;23;20379;-77
2023/05/24 13:35:52;;;;;;;7.13;4.82;;;22.30;85.90;;;;;;6063763;23;20383;-78
2023/05/24 13:38:21;;;;;;;6.53;4.70;;;22.10;88.70;;;;;;6068373;23;20393;-78
2023/05/24 13:40:48;;;;;;;8.13;5.20;;;21.90;95.10;;;;;;6067263;23;20428;-78
2023/05/24 13:43:15;;;;;;;7.03;5.05;;;21.70;96.30;;;;;;6067915;23;20851;-77
2023/05/24 13:45:43;;;;;;;7.53;5.43;;;21.60;95.70;;;;;;6066702;23;20373;-77
2023/05/24 19:47:34;;;;;;;4.28;3.88;;;16.80;99.90;;;;;;6092513;23;20376;-79
2023/05/24 19:50:01;;;;;;;3.67;2.75;;;16.70;99.90;;;;;;6068800;23;20377;-79
2023/05/24 19:52:28;;;;;;;4.88;2.75;;;16.60;99.90;;;;;;6066824;23;20383;-79
2023/05/24 19:54:55;;;;;;;2.35;2.15;;;16.60;99.90;;;;;;6068568;23;20901;-79
2023/05/24 19:57:22;;;;;;;3.35;2.58;;;16.60;99.90;;;;;;6066767;23;20428;-79
2023/05/24 19:59:49;;;;;;;4.57;3.10;;;16.60;99.90;;;;;;6068857;23;20385;-79
2023/05/24 20:02:16;;;;;;;3.53;3.20;;;16.60;99.90;;;;;;6067215;23;20843;-79
2023/05/24 20:04:43;;;;;;;4.32;3.22;;;16.60;99.90;;;;;;6068754;23;20685;-79
2023/05/24 20:07:10;;;;;;;3.33;3.00;;;16.50;99.90;;;;;;6068718;23;20436;-79
2023/05/24 20:09:37;;;;;;;4.10;3.75;;;16.50;99.90;;;;;;6068404;23;20369;-79
2023/05/24 20:12:04;;;;;;;6.05;4.97;;;16.50;99.90;;;;;;6068218;23;20469;-79
2023/05/24 20:14:31;;;;;;;6.10;5.03;;;16.50;99.90;;;;;;6067823;23;20385;-78
2023/05/24 20:16:59;;;;;;;4.88;4.35;;;16.50;99.90;;;;;;6068955;23;20386;-78
2023/05/24 20:19:27;;;;;;;5.63;3.87;;;16.50;99.90;;;;;;6092898;23;20484;-79
2023/05/24 20:21:54;;;;;;;4.88;4.40;;;16.60;99.90;;;;;;6067235;23;20373;-79
2023/05/24 20:24:21;;;;;;;4.82;4.35;;;16.60;99.90;;;;;;6066910;23;20377;-78
2023/05/24 20:26:48;;;;;;;5.93;4.63;;;16.60;99.90;;;;;;6093679;23;20733;-79
2023/05/24 20:29:15;;;;;;;5.13;4.43;;;16.60;99.90;;;;;;6092495;23;20855;-79
2023/05/24 20:31:42;;;;;;;4.57;4.18;;;16.60;99.90;;;;;;6068341;23;20376;-79
2023/05/24 20:34:09;;;;;;;4.82;4.32;;;16.60;99.90;;;;;;6093453;23;20377;-79
2023/05/24 20:36:36;;;;;;;5.47;4.82;;;16.70;99.90;;;;;;6092854;23;20444;-79
2023/05/24 20:39:03;;;;;;;5.47;4.80;;;16.70;99.90;;;;;;6068481;23;20469;-79
2023/05/24 20:41:30;;;;;;;6.07;4.88;;;16.70;99.90;;;;;;6067935;23;20429;-79
2023/05/24 20:43:57;;;;;;;5.47;4.75;;;16.70;99.90;;;;;;6068427;23;20374;-78
2023/05/24 20:46:24;;;;;;;5.10;4.60;;;16.70;99.90;;;;;;6067089;23;20373;-78
2023/05/24 20:48:52;;;;;;;5.47;4.75;;;16.70;99.90;;;;;;6067837;23;20397;-78
2023/05/24 20:51:21;;;;;;;6.03;4.35;;;16.70;99.90;;;;;;6067078;23;20416;-79
2023/05/24 20:53:50;;;;;;;5.22;4.70;;;16.70;99.90;;;;;;6067319;23;20432;-78
2023/05/24 20:56:19;;;;;;;5.00;4.28;;;16.70;99.90;;;;;;6067670;23;20382;-79
2023/05/24 20:58:47;;;;;;;6.13;5.00;;;16.70;99.90;;;;;;6092786;23;20390;-78
2023/05/24 21:01:15;;;;;;;6.80;5.10;;;16.70;99.90;;;;;;6068378;23;20381;-79
2023/05/24 21:03:42;;;;;;;6.05;5.45;;;16.70;99.90;;;;;;6066561;23;20392;-79
2023/05/24 21:06:09;;;;;;;6.35;5.63;;;16.60;99.90;;;;;;6067878;23;20373;-79
2023/05/24 21:08:37;;;;;;;6.75;5.53;;;16.60;99.90;;;;;;6066956;23;20377;-79
2023/05/24 21:11:04;;;;;;;7.07;5.63;;;16.50;99.90;;;;;;6067740;23;20377;-79
2023/05/24 21:13:31;;;;;;;6.33;5.40;;;16.50;99.90;;;;;;6066433;23;20378;-78
2023/05/24 21:15:57;;;;;;;6.03;5.45;;;16.50;99.90;;;;;;6068163;23;20385;-79
2023/05/24 21:18:24;;;;;;;4.63;4.15;;;16.50;99.90;;;;;;6067208;23;20735;-78
2023/05/24 21:20:51;;;;;;;6.22;5.03;;;16.50;99.90;;;;;;6067988;23;20377;-78
2023/05/24 21:23:18;;;;;;;5.93;4.90;;;16.50;99.90;;;;;;6067897;23;20707;-79
2023/05/24 21:25:45;;;;;;;6.22;5.03;;;16.50;99.90;;;;;;6067346;23;20381;-79
2023/05/24 21:28:12;;;;;;;6.18;4.57;;;16.50;99.90;;;;;;6067593;23;20685;-79
2023/05/24 21:30:39;;;;;;;6.13;4.93;;;16.40;99.90;;;;;;6067325;23;20416;-79
2023/05/24 21:33:06;;;;;;;4.93;4.35;;;16.50;99.90;;;;;;6067361;23;20381;-79
2023/05/24 21:35:33;;;;;;;5.00;4.10;;;16.50;99.90;;;;;;6066726;23;20374;-79
2023/05/24 21:38:00;;;;;;;4.83;4.43;;;16.50;99.90;;;;;;6093225;23;20377;-79
2023/05/24 21:40:27;;;;;;;6.07;4.83;;;16.50;99.90;;;;;;6067020;23;20381;-79
2023/05/24 21:42:54;;;;;;;5.50;4.85;;;16.50;99.90;;;;;;6067886;23;20797;-79
2023/05/24 21:45:21;;;;;;;5.15;4.47;;;16.50;99.90;;;;;;6067721;23;20819;-79
2023/05/24 21:47:48;;;;;;;6.30;5.50;;;16.50;99.90;;;;;;6067267;23;20373;-79
2023/05/24 21:50:15;;;;;;;5.93;5.35;;;16.50;99.90;;;;;;6067160;23;20483;-79
2023/05/24 21:52:42;;;;;;;7.10;5.88;;;16.40;99.90;;;;;;6063290;23;20400;-79
2023/05/24 21:55:09;;;;;;;6.57;5.63;;;16.40;99.90;;;;;;6068155;23;20390;-79
2023/05/24 21:57:35;;;;;;;6.38;5.70;;;16.40;99.90;;;;;;6067073;23;20393;-79
2023/05/24 22:00:03;;;;;;;7.20;6.20;;;16.40;99.90;;;;;;6092252;23;20377;-79
2023/05/24 22:02:30;;;;;;;5.50;5.00;;;16.40;99.90;;;;;;6067287;23;20389;-79
2023/05/24 22:04:57;;;;;;;5.60;4.97;;;16.40;99.90;;;;;;6068799;23;20697;-79
2023/05/24 22:07:24;;;;;;;6.55;5.25;;;16.40;99.90;;;;;;6068607;23;20397;-79
2023/05/24 22:09:51;;;;;;;5.45;4.72;;;16.40;99.90;;;;;;6092817;23;20840;-78
2023/05/24 22:12:18;;;;;;;5.45;4.60;;;16.40;99.90;;;;;;6068035;23;20389;-79
2023/05/24 22:14:45;;;;;;;6.32;5.72;;;16.50;99.90;;;;;;6067469;23;20385;-79
2023/05/24 22:17:13;;;;;;;5.80;5.30;;;16.50;99.90;;;;;;6068441;23;20377;-79
2023/05/24 22:19:40;;;;;;;6.73;6.13;;;16.50;99.90;;;;;;6090700;23;20396;-79
2023/05/24 22:22:08;;;;;;;6.72;6.13;;;16.50;99.90;;;;;;6068378;23;20404;-79
2023/05/24 22:24:35;;;;;;;6.60;5.93;;;16.50;99.90;;;;;;6067201;23;20450;-79
2023/05/24 22:27:08;;;;;;;5.55;5.05;;;16.50;99.90;;;;;;6067898;23;20376;-79
2023/05/24 22:29:35;;;;;;;5.65;5.15;;;16.40;99.90;;;;;;6067289;23;20388;-79
2023/05/24 22:32:02;;;;;;;5.90;5.38;;;16.40;99.90;;;;;;6068106;23;20437;-79
2023/05/24 22:34:29;;;;;;;5.35;4.85;;;16.40;99.90;;;;;;6067764;23;20389;-80
2023/05/24 22:36:56;;;;;;;6.07;5.13;;;16.40;99.90;;;;;;6068398;23;20421;-79
2023/05/24 22:39:23;;;;;;;4.90;4.40;;;16.40;99.90;;;;;;6092971;23;20469;-79
2023/05/24 22:41:51;;;;;;;6.32;4.82;;;16.40;99.90;;;;;;6092537;23;20380;-79
2023/05/24 22:44:18;;;;;;;5.38;4.88;;;16.30;99.90;;;;;;6068081;23;20373;-79
2023/05/24 22:46:48;;;;;;;5.70;5.10;;;16.30;99.90;;;;;;6093376;23;20377;-79
2023/05/24 22:49:18;;;;;;;6.60;6.03;;;16.30;99.90;;;;;;6070434;23;20863;-79
2023/05/24 22:51:47;;;;;;;6.40;5.67;;;16.20;99.90;;;;;;6069208;23;20797;-79
2023/05/24 22:54:16;;;;;;;6.00;5.37;;;16.20;99.90;;;;;;6069774;23;20400;-79
2023/05/24 22:56:44;;;;;;;6.22;5.55;;;16.20;99.90;;;;;;6068937;23;20432;-79
2023/05/24 22:59:11;;;;;;;6.15;5.40;;;16.10;99.90;;;;;;6069770;23;20381;-79
2023/05/24 23:01:38;;;;;;;5.63;5.05;;;16.20;99.90;;;;;;6069357;23;20856;-79
2023/05/24 23:04:05;;;;;;;6.43;5.57;;;16.10;99.90;;;;;;6069746;23;20397;-79
2023/05/24 23:06:45;;;;;;;5.30;4.65;;;16.10;99.90;;;;;;6071923;23;20377;-79
2023/05/24 23:09:12;;;;;;;5.43;4.53;;;16.10;99.90;;;;;;6046048;23;20370;-79
2023/05/24 23:11:39;;;;;;;6.20;5.50;;;16.10;99.90;;;;;;6069278;23;20910;-79
2023/05/24 23:14:07;;;;;;;7.15;5.72;;;16.10;99.90;;;;;;6070053;23;20378;-79
2023/05/24 23:16:43;;;;;;;6.90;5.90;;;16.10;99.90;;;;;;6069053;23;20382;-79
2023/05/24 23:19:16;;;;;;;7.55;5.43;;;16.10;99.90;;;;;;6070237;23;20428;-79
2023/05/24 23:21:51;;;;;;;6.90;5.53;;;16.10;99.90;;;;;;6093809;23;20382;-79
2023/05/24 23:24:18;;;;;;;5.47;4.97;;;16.20;99.90;;;;;;6069910;23;20384;-79